sensor_id;sensor_type;location;lat;lon;timestamp;P1;durP1;ratioP1;P2;durP2;ratioP2
11078;SDS011;5592;49.234;7.268;2023-11-21T00:02:11;5.40;;;2.37;;
11078;SDS011;5592;49.234;7.268;2023-11-21T00:04:37;10.73;;;2.10;;
11078;SDS011;5592;49.234;7.268;2023-11-21T00:07:03;3.63;;;1.53;;
11078;SDS011;5592;49.234;7.268;2023-11-21T00:09:28;2.70;;;1.57;;
11078;SDS011;5592;49.234;7.268;2023-11-21T00:11:54;4.20;;;1.67;;
11078;SDS011;5592;49.234;7.268;2023-11-21T00:14:19;3.10;;;1.70;;
11078;SDS011;5592;49.234;7.268;2023-11-21T00:16:45;4.43;;;2.17;;
11078;SDS011;5592;49.234;7.268;2023-11-21T00:19:11;6.27;;;1.83;;
11078;SDS011;5592;49.234;7.268;2023-11-21T00:21:37;4.03;;;1.63;;
11078;SDS011;5592;49.234;7.268;2023-11-21T00:24:03;7.20;;;2.20;;
11078;SDS011;5592;49.234;7.268;2023-11-21T00:26:28;5.53;;;1.80;;
11078;SDS011;5592;49.234;7.268;2023-11-21T00:28:56;2.87;;;1.90;;
11078;SDS011;5592;49.234;7.268;2023-11-21T00:31:21;2.93;;;1.33;;
11078;SDS011;5592;49.234;7.268;2023-11-21T00:33:47;1.83;;;1.40;;
11078;SDS011;5592;49.234;7.268;2023-11-21T00:36:13;3.10;;;2.07;;
11078;SDS011;5592;49.234;7.268;2023-11-21T00:38:39;9.40;;;2.17;;
11078;SDS011;5592;49.234;7.268;2023-11-21T00:41:05;7.23;;;1.70;;
11078;SDS011;5592;49.234;7.268;2023-11-21T00:43:31;1.80;;;1.60;;
11078;SDS011;5592;49.234;7.268;2023-11-21T00:45:58;2.23;;;1.60;;
11078;SDS011;5592;49.234;7.268;2023-11-21T00:48:24;5.30;;;1.60;;
11078;SDS011;5592;49.234;7.268;2023-11-21T00:50:49;2.70;;;1.60;;
11078;SDS011;5592;49.234;7.268;2023-11-21T00:53:15;2.77;;;1.40;;
11078;SDS011;5592;49.234;7.268;2023-11-21T00:55:44;2.00;;;1.60;;
11078;SDS011;5592;49.234;7.268;2023-11-21T00:58:12;3.90;;;2.00;;
11078;SDS011;5592;49.234;7.268;2023-11-21T01:00:38;2.23;;;1.70;;
11078;SDS011;5592;49.234;7.268;2023-11-21T01:03:04;2.70;;;1.80;;
11078;SDS011;5592;49.234;7.268;2023-11-21T01:05:30;4.53;;;1.87;;
11078;SDS011;5592;49.234;7.268;2023-11-21T01:07:55;5.77;;;1.87;;
11078;SDS011;5592;49.234;7.268;2023-11-21T01:10:21;2.60;;;1.33;;
11078;SDS011;5592;49.234;7.268;2023-11-21T01:12:46;2.50;;;1.87;;
11078;SDS011;5592;49.234;7.268;2023-11-21T01:15:13;4.77;;;1.93;;
11078;SDS011;5592;49.234;7.268;2023-11-21T01:17:39;2.90;;;1.97;;
11078;SDS011;5592;49.234;7.268;2023-11-21T01:20:05;3.00;;;1.77;;
11078;SDS011;5592;49.234;7.268;2023-11-21T01:22:38;7.47;;;2.40;;
11078;SDS011;5592;49.234;7.268;2023-11-21T01:25:04;3.30;;;2.00;;
11078;SDS011;5592;49.234;7.268;2023-11-21T01:27:32;5.10;;;2.20;;
11078;SDS011;5592;49.234;7.268;2023-11-21T01:30:02;3.30;;;1.90;;
11078;SDS011;5592;49.234;7.268;2023-11-21T01:32:28;10.80;;;2.50;;
11078;SDS011;5592;49.234;7.268;2023-11-21T01:34:54;3.37;;;2.47;;
11078;SDS011;5592;49.234;7.268;2023-11-21T01:37:24;4.20;;;2.20;;
11078;SDS011;5592;49.234;7.268;2023-11-21T01:39:52;2.40;;;1.70;;
11078;SDS011;5592;49.234;7.268;2023-11-21T01:42:19;3.27;;;2.50;;
11078;SDS011;5592;49.234;7.268;2023-11-21T01:44:45;3.97;;;2.67;;
11078;SDS011;5592;49.234;7.268;2023-11-21T01:47:11;4.27;;;2.40;;
11078;SDS011;5592;49.234;7.268;2023-11-21T01:49:38;3.30;;;2.23;;
11078;SDS011;5592;49.234;7.268;2023-11-21T01:52:04;3.00;;;2.80;;
11078;SDS011;5592;49.234;7.268;2023-11-21T01:54:30;3.40;;;2.00;;
11078;SDS011;5592;49.234;7.268;2023-11-21T01:56:57;2.93;;;2.13;;
11078;SDS011;5592;49.234;7.268;2023-11-21T01:59:27;3.53;;;2.50;;
11078;SDS011;5592;49.234;7.268;2023-11-21T02:01:59;3.03;;;2.40;;
11078;SDS011;5592;49.234;7.268;2023-11-21T02:04:24;3.83;;;2.77;;
11078;SDS011;5592;49.234;7.268;2023-11-21T02:06:50;4.27;;;2.43;;
11078;SDS011;5592;49.234;7.268;2023-11-21T02:09:16;4.83;;;2.80;;
11078;SDS011;5592;49.234;7.268;2023-11-21T02:11:42;3.87;;;2.80;;
11078;SDS011;5592;49.234;7.268;2023-11-21T02:14:09;4.13;;;2.70;;
11078;SDS011;5592;49.234;7.268;2023-11-21T02:16:35;4.63;;;2.90;;
11078;SDS011;5592;49.234;7.268;2023-11-21T02:19:02;4.60;;;2.97;;
11078;SDS011;5592;49.234;7.268;2023-11-21T02:21:31;3.50;;;2.50;;
11078;SDS011;5592;49.234;7.268;2023-11-21T02:23:57;8.93;;;3.03;;
11078;SDS011;5592;49.234;7.268;2023-11-21T02:26:23;3.87;;;2.50;;
11078;SDS011;5592;49.234;7.268;2023-11-21T02:28:50;3.83;;;2.43;;
11078;SDS011;5592;49.234;7.268;2023-11-21T02:31:18;3.40;;;3.10;;
11078;SDS011;5592;49.234;7.268;2023-11-21T02:33:44;2.87;;;2.60;;
11078;SDS011;5592;49.234;7.268;2023-11-21T02:36:09;3.80;;;3.00;;
11078;SDS011;5592;49.234;7.268;2023-11-21T02:38:35;3.77;;;2.80;;
11078;SDS011;5592;49.234;7.268;2023-11-21T02:41:00;5.13;;;3.27;;
11078;SDS011;5592;49.234;7.268;2023-11-21T02:43:26;5.20;;;3.20;;
11078;SDS011;5592;49.234;7.268;2023-11-21T02:45:51;3.97;;;2.83;;
11078;SDS011;5592;49.234;7.268;2023-11-21T02:48:17;4.90;;;3.03;;
11078;SDS011;5592;49.234;7.268;2023-11-21T02:50:42;5.90;;;3.10;;
11078;SDS011;5592;49.234;7.268;2023-11-21T02:53:08;4.00;;;2.77;;
11078;SDS011;5592;49.234;7.268;2023-11-21T02:55:35;4.13;;;3.03;;
11078;SDS011;5592;49.234;7.268;2023-11-21T02:58:01;3.60;;;2.80;;
11078;SDS011;5592;49.234;7.268;2023-11-21T03:00:28;4.87;;;2.83;;
11078;SDS011;5592;49.234;7.268;2023-11-21T03:02:55;7.07;;;3.70;;
11078;SDS011;5592;49.234;7.268;2023-11-21T03:05:21;3.40;;;3.10;;
11078;SDS011;5592;49.234;7.268;2023-11-21T03:07:47;6.00;;;3.90;;
11078;SDS011;5592;49.234;7.268;2023-11-21T03:10:12;6.03;;;3.33;;
11078;SDS011;5592;49.234;7.268;2023-11-21T03:12:38;4.40;;;3.37;;
11078;SDS011;5592;49.234;7.268;2023-11-21T03:15:07;4.23;;;3.47;;
11078;SDS011;5592;49.234;7.268;2023-11-21T03:17:33;5.30;;;3.43;;
11078;SDS011;5592;49.234;7.268;2023-11-21T03:19:59;4.03;;;3.20;;
11078;SDS011;5592;49.234;7.268;2023-11-21T03:22:25;6.93;;;3.67;;
11078;SDS011;5592;49.234;7.268;2023-11-21T03:24:51;4.13;;;3.50;;
11078;SDS011;5592;49.234;7.268;2023-11-21T03:27:17;4.40;;;3.57;;
11078;SDS011;5592;49.234;7.268;2023-11-21T03:29:43;4.60;;;4.10;;
11078;SDS011;5592;49.234;7.268;2023-11-21T03:32:10;4.50;;;3.60;;
11078;SDS011;5592;49.234;7.268;2023-11-21T03:34:42;4.20;;;3.70;;
11078;SDS011;5592;49.234;7.268;2023-11-21T03:37:22;4.60;;;3.40;;
11078;SDS011;5592;49.234;7.268;2023-11-21T03:39:49;5.03;;;4.10;;
11078;SDS011;5592;49.234;7.268;2023-11-21T03:42:15;4.10;;;3.47;;
11078;SDS011;5592;49.234;7.268;2023-11-21T03:44:40;5.73;;;4.10;;
11078;SDS011;5592;49.234;7.268;2023-11-21T03:47:05;7.97;;;4.40;;
11078;SDS011;5592;49.234;7.268;2023-11-21T03:49:31;5.07;;;3.90;;
11078;SDS011;5592;49.234;7.268;2023-11-21T03:51:56;18.97;;;4.80;;
11078;SDS011;5592;49.234;7.268;2023-11-21T03:54:22;7.43;;;3.83;;
11078;SDS011;5592;49.234;7.268;2023-11-21T03:56:47;6.30;;;4.10;;
11078;SDS011;5592;49.234;7.268;2023-11-21T03:59:14;5.90;;;4.23;;
11078;SDS011;5592;49.234;7.268;2023-11-21T04:01:39;6.97;;;4.10;;
11078;SDS011;5592;49.234;7.268;2023-11-21T04:04:05;5.80;;;4.70;;
11078;SDS011;5592;49.234;7.268;2023-11-21T04:06:30;4.77;;;4.10;;
11078;SDS011;5592;49.234;7.268;2023-11-21T04:08:57;8.63;;;4.60;;
11078;SDS011;5592;49.234;7.268;2023-11-21T04:11:23;6.67;;;4.20;;
11078;SDS011;5592;49.234;7.268;2023-11-21T04:13:49;6.10;;;4.67;;
11078;SDS011;5592;49.234;7.268;2023-11-21T04:16:14;5.50;;;4.60;;
11078;SDS011;5592;49.234;7.268;2023-11-21T04:18:40;5.87;;;5.27;;
11078;SDS011;5592;49.234;7.268;2023-11-21T04:21:06;5.90;;;4.20;;
11078;SDS011;5592;49.234;7.268;2023-11-21T04:23:32;9.83;;;4.93;;
11078;SDS011;5592;49.234;7.268;2023-11-21T04:25:58;5.17;;;3.93;;
11078;SDS011;5592;49.234;7.268;2023-11-21T04:28:24;5.43;;;4.07;;
11078;SDS011;5592;49.234;7.268;2023-11-21T04:30:49;5.60;;;3.97;;
11078;SDS011;5592;49.234;7.268;2023-11-21T04:33:15;5.33;;;4.07;;
11078;SDS011;5592;49.234;7.268;2023-11-21T04:35:41;5.40;;;4.60;;
11078;SDS011;5592;49.234;7.268;2023-11-21T04:38:06;6.43;;;4.47;;
11078;SDS011;5592;49.234;7.268;2023-11-21T04:40:32;11.03;;;4.43;;
11078;SDS011;5592;49.234;7.268;2023-11-21T04:42:58;4.87;;;4.37;;
11078;SDS011;5592;49.234;7.268;2023-11-21T04:45:23;5.83;;;4.47;;
11078;SDS011;5592;49.234;7.268;2023-11-21T04:47:49;7.30;;;4.83;;
11078;SDS011;5592;49.234;7.268;2023-11-21T04:50:14;6.90;;;4.70;;
11078;SDS011;5592;49.234;7.268;2023-11-21T04:52:40;4.97;;;4.47;;
11078;SDS011;5592;49.234;7.268;2023-11-21T04:55:05;5.13;;;4.47;;
11078;SDS011;5592;49.234;7.268;2023-11-21T04:57:34;6.00;;;5.40;;
11078;SDS011;5592;49.234;7.268;2023-11-21T05:00:00;7.87;;;4.43;;
11078;SDS011;5592;49.234;7.268;2023-11-21T05:02:26;4.30;;;3.90;;
11078;SDS011;5592;49.234;7.268;2023-11-21T05:04:52;6.97;;;4.83;;
11078;SDS011;5592;49.234;7.268;2023-11-21T05:07:18;5.53;;;4.60;;
11078;SDS011;5592;49.234;7.268;2023-11-21T05:09:43;5.30;;;4.43;;
11078;SDS011;5592;49.234;7.268;2023-11-21T05:12:10;12.30;;;4.63;;
11078;SDS011;5592;49.234;7.268;2023-11-21T05:14:39;7.13;;;5.33;;
11078;SDS011;5592;49.234;7.268;2023-11-21T05:17:05;5.33;;;3.87;;
11078;SDS011;5592;49.234;7.268;2023-11-21T05:19:30;6.50;;;3.40;;
11078;SDS011;5592;49.234;7.268;2023-11-21T05:21:57;5.20;;;4.70;;
11078;SDS011;5592;49.234;7.268;2023-11-21T05:24:25;6.40;;;4.23;;
11078;SDS011;5592;49.234;7.268;2023-11-21T05:26:51;6.23;;;4.00;;
11078;SDS011;5592;49.234;7.268;2023-11-21T05:29:17;7.33;;;4.20;;
11078;SDS011;5592;49.234;7.268;2023-11-21T05:31:43;9.00;;;4.10;;
11078;SDS011;5592;49.234;7.268;2023-11-21T05:34:08;6.53;;;3.80;;
11078;SDS011;5592;49.234;7.268;2023-11-21T05:36:34;3.90;;;3.50;;
11078;SDS011;5592;49.234;7.268;2023-11-21T05:39:00;5.10;;;3.43;;
11078;SDS011;5592;49.234;7.268;2023-11-21T05:41:25;5.23;;;4.00;;
11078;SDS011;5592;49.234;7.268;2023-11-21T05:43:51;5.63;;;3.93;;
11078;SDS011;5592;49.234;7.268;2023-11-21T05:46:19;4.70;;;3.83;;
11078;SDS011;5592;49.234;7.268;2023-11-21T05:48:44;4.73;;;3.50;;
11078;SDS011;5592;49.234;7.268;2023-11-21T05:51:10;6.23;;;3.67;;
11078;SDS011;5592;49.234;7.268;2023-11-21T05:53:37;5.93;;;3.93;;
11078;SDS011;5592;49.234;7.268;2023-11-21T05:56:03;7.63;;;3.10;;
11078;SDS011;5592;49.234;7.268;2023-11-21T05:58:29;3.73;;;3.33;;
11078;SDS011;5592;49.234;7.268;2023-11-21T06:00:54;3.87;;;2.90;;
11078;SDS011;5592;49.234;7.268;2023-11-21T06:03:20;5.00;;;3.60;;
11078;SDS011;5592;49.234;7.268;2023-11-21T06:05:45;5.80;;;2.77;;
11078;SDS011;5592;49.234;7.268;2023-11-21T06:08:11;3.80;;;3.10;;
11078;SDS011;5592;49.234;7.268;2023-11-21T06:10:36;4.63;;;2.70;;
11078;SDS011;5592;49.234;7.268;2023-11-21T06:13:02;16.10;;;3.47;;
11078;SDS011;5592;49.234;7.268;2023-11-21T06:15:28;3.63;;;3.30;;
11078;SDS011;5592;49.234;7.268;2023-11-21T06:17:54;4.47;;;3.33;;
11078;SDS011;5592;49.234;7.268;2023-11-21T06:20:20;5.33;;;3.37;;
11078;SDS011;5592;49.234;7.268;2023-11-21T06:22:48;6.30;;;3.40;;
11078;SDS011;5592;49.234;7.268;2023-11-21T06:25:17;3.80;;;3.40;;
11078;SDS011;5592;49.234;7.268;2023-11-21T06:30:14;3.30;;;2.63;;
11078;SDS011;5592;49.234;7.268;2023-11-21T06:32:40;5.90;;;3.10;;
11078;SDS011;5592;49.234;7.268;2023-11-21T06:35:06;3.80;;;3.10;;
11078;SDS011;5592;49.234;7.268;2023-11-21T06:37:33;6.30;;;2.80;;
11078;SDS011;5592;49.234;7.268;2023-11-21T06:39:59;4.43;;;3.13;;
11078;SDS011;5592;49.234;7.268;2023-11-21T06:42:26;4.00;;;2.70;;
11078;SDS011;5592;49.234;7.268;2023-11-21T06:44:52;3.77;;;2.80;;
11078;SDS011;5592;49.234;7.268;2023-11-21T06:47:19;2.90;;;2.53;;
11078;SDS011;5592;49.234;7.268;2023-11-21T06:49:49;4.67;;;2.50;;
11078;SDS011;5592;49.234;7.268;2023-11-21T06:52:16;3.00;;;2.40;;
11078;SDS011;5592;49.234;7.268;2023-11-21T06:54:42;3.83;;;3.10;;
11078;SDS011;5592;49.234;7.268;2023-11-21T06:57:09;9.90;;;3.30;;
11078;SDS011;5592;49.234;7.268;2023-11-21T06:59:35;3.17;;;2.10;;
11078;SDS011;5592;49.234;7.268;2023-11-21T07:02:00;8.73;;;3.20;;
11078;SDS011;5592;49.234;7.268;2023-11-21T07:04:28;3.30;;;2.60;;
11078;SDS011;5592;49.234;7.268;2023-11-21T07:06:54;3.47;;;3.00;;
11078;SDS011;5592;49.234;7.268;2023-11-21T07:09:20;2.77;;;2.50;;
11078;SDS011;5592;49.234;7.268;2023-11-21T07:11:51;5.33;;;2.53;;
11078;SDS011;5592;49.234;7.268;2023-11-21T07:14:21;3.97;;;2.17;;
11078;SDS011;5592;49.234;7.268;2023-11-21T07:16:51;3.00;;;2.23;;
11078;SDS011;5592;49.234;7.268;2023-11-21T07:19:17;2.20;;;2.00;;
11078;SDS011;5592;49.234;7.268;2023-11-21T07:21:43;3.83;;;2.13;;
11078;SDS011;5592;49.234;7.268;2023-11-21T07:24:08;5.20;;;2.63;;
11078;SDS011;5592;49.234;7.268;2023-11-21T07:26:36;2.77;;;2.27;;
11078;SDS011;5592;49.234;7.268;2023-11-21T07:29:02;3.37;;;2.40;;
11078;SDS011;5592;49.234;7.268;2023-11-21T07:31:30;4.57;;;2.37;;
11078;SDS011;5592;49.234;7.268;2023-11-21T07:33:59;4.20;;;2.70;;
11078;SDS011;5592;49.234;7.268;2023-11-21T07:36:27;2.37;;;2.17;;
11078;SDS011;5592;49.234;7.268;2023-11-21T07:38:55;6.80;;;2.43;;
11078;SDS011;5592;49.234;7.268;2023-11-21T07:41:21;3.70;;;2.33;;
11078;SDS011;5592;49.234;7.268;2023-11-21T07:43:51;3.13;;;1.80;;
11078;SDS011;5592;49.234;7.268;2023-11-21T07:46:17;3.93;;;2.30;;
11078;SDS011;5592;49.234;7.268;2023-11-21T07:48:43;2.30;;;2.10;;
11078;SDS011;5592;49.234;7.268;2023-11-21T07:51:09;3.03;;;2.43;;
11078;SDS011;5592;49.234;7.268;2023-11-21T07:53:35;6.00;;;2.10;;
11078;SDS011;5592;49.234;7.268;2023-11-21T07:56:04;2.60;;;1.70;;
11078;SDS011;5592;49.234;7.268;2023-11-21T07:58:33;2.60;;;1.83;;
11078;SDS011;5592;49.234;7.268;2023-11-21T08:01:01;2.63;;;1.80;;
11078;SDS011;5592;49.234;7.268;2023-11-21T08:03:30;2.93;;;1.67;;
11078;SDS011;5592;49.234;7.268;2023-11-21T08:05:56;4.70;;;1.70;;
11078;SDS011;5592;49.234;7.268;2023-11-21T08:08:24;6.03;;;1.70;;
11078;SDS011;5592;49.234;7.268;2023-11-21T08:10:54;3.87;;;1.77;;
11078;SDS011;5592;49.234;7.268;2023-11-21T08:13:26;3.40;;;2.03;;
11078;SDS011;5592;49.234;7.268;2023-11-21T08:15:56;4.03;;;1.67;;
11078;SDS011;5592;49.234;7.268;2023-11-21T08:18:29;2.60;;;1.70;;
11078;SDS011;5592;49.234;7.268;2023-11-21T08:20:55;5.90;;;2.10;;
11078;SDS011;5592;49.234;7.268;2023-11-21T08:23:20;2.30;;;2.00;;
11078;SDS011;5592;49.234;7.268;2023-11-21T08:25:50;4.63;;;2.97;;
11078;SDS011;5592;49.234;7.268;2023-11-21T08:28:18;5.40;;;2.03;;
11078;SDS011;5592;49.234;7.268;2023-11-21T08:30:47;3.23;;;1.77;;
11078;SDS011;5592;49.234;7.268;2023-11-21T08:33:15;2.40;;;2.10;;
11078;SDS011;5592;49.234;7.268;2023-11-21T08:35:41;7.00;;;2.93;;
11078;SDS011;5592;49.234;7.268;2023-11-21T08:38:17;4.60;;;2.73;;
11078;SDS011;5592;49.234;7.268;2023-11-21T08:40:44;3.23;;;2.00;;
11078;SDS011;5592;49.234;7.268;2023-11-21T08:43:10;3.27;;;2.20;;
11078;SDS011;5592;49.234;7.268;2023-11-21T08:45:37;3.57;;;2.27;;
11078;SDS011;5592;49.234;7.268;2023-11-21T08:48:02;2.93;;;2.50;;
11078;SDS011;5592;49.234;7.268;2023-11-21T08:50:29;2.33;;;1.80;;
11078;SDS011;5592;49.234;7.268;2023-11-21T08:55:42;4.73;;;1.90;;
11078;SDS011;5592;49.234;7.268;2023-11-21T08:58:09;7.40;;;2.33;;
11078;SDS011;5592;49.234;7.268;2023-11-21T09:00:37;2.77;;;1.90;;
11078;SDS011;5592;49.234;7.268;2023-11-21T09:03:04;4.60;;;2.27;;
11078;SDS011;5592;49.234;7.268;2023-11-21T09:05:34;5.90;;;2.20;;
11078;SDS011;5592;49.234;7.268;2023-11-21T09:08:07;5.20;;;2.20;;
11078;SDS011;5592;49.234;7.268;2023-11-21T09:10:39;2.80;;;2.17;;
11078;SDS011;5592;49.234;7.268;2023-11-21T09:13:08;3.30;;;2.00;;
11078;SDS011;5592;49.234;7.268;2023-11-21T09:15:35;5.80;;;2.40;;
11078;SDS011;5592;49.234;7.268;2023-11-21T09:18:01;2.43;;;2.10;;
11078;SDS011;5592;49.234;7.268;2023-11-21T09:20:29;2.47;;;2.27;;
11078;SDS011;5592;49.234;7.268;2023-11-21T09:22:55;2.43;;;1.90;;
11078;SDS011;5592;49.234;7.268;2023-11-21T09:25:21;5.00;;;2.37;;
11078;SDS011;5592;49.234;7.268;2023-11-21T09:27:47;2.97;;;2.30;;
11078;SDS011;5592;49.234;7.268;2023-11-21T09:30:13;5.20;;;2.20;;
11078;SDS011;5592;49.234;7.268;2023-11-21T09:32:41;3.00;;;2.40;;
11078;SDS011;5592;49.234;7.268;2023-11-21T09:35:13;3.13;;;2.03;;
11078;SDS011;5592;49.234;7.268;2023-11-21T09:37:39;5.10;;;2.23;;
11078;SDS011;5592;49.234;7.268;2023-11-21T09:40:04;2.93;;;1.83;;
11078;SDS011;5592;49.234;7.268;2023-11-21T09:45:25;1.87;;;1.70;;
11078;SDS011;5592;49.234;7.268;2023-11-21T09:47:53;2.03;;;1.80;;
11078;SDS011;5592;49.234;7.268;2023-11-21T09:50:23;1.93;;;1.80;;
11078;SDS011;5592;49.234;7.268;2023-11-21T09:52:58;1.83;;;1.57;;
11078;SDS011;5592;49.234;7.268;2023-11-21T09:55:45;3.83;;;1.70;;
11078;SDS011;5592;49.234;7.268;2023-11-21T09:58:16;1.83;;;1.63;;
11078;SDS011;5592;49.234;7.268;2023-11-21T10:00:44;1.93;;;1.57;;
11078;SDS011;5592;49.234;7.268;2023-11-21T10:03:11;1.73;;;1.23;;
11078;SDS011;5592;49.234;7.268;2023-11-21T10:05:38;1.43;;;1.30;;
11078;SDS011;5592;49.234;7.268;2023-11-21T10:08:08;1.40;;;1.30;;
11078;SDS011;5592;49.234;7.268;2023-11-21T10:10:38;3.07;;;1.50;;
11078;SDS011;5592;49.234;7.268;2023-11-21T10:13:15;3.43;;;1.30;;
11078;SDS011;5592;49.234;7.268;2023-11-21T10:15:44;2.60;;;1.50;;
11078;SDS011;5592;49.234;7.268;2023-11-21T10:18:16;1.20;;;1.10;;
11078;SDS011;5592;49.234;7.268;2023-11-21T10:20:43;2.53;;;1.60;;
11078;SDS011;5592;49.234;7.268;2023-11-21T10:23:11;1.90;;;1.47;;
11078;SDS011;5592;49.234;7.268;2023-11-21T10:25:37;1.83;;;1.40;;
11078;SDS011;5592;49.234;7.268;2023-11-21T10:28:04;2.43;;;1.50;;
11078;SDS011;5592;49.234;7.268;2023-11-21T10:30:32;3.40;;;1.47;;
11078;SDS011;5592;49.234;7.268;2023-11-21T10:33:02;3.23;;;1.20;;
11078;SDS011;5592;49.234;7.268;2023-11-21T10:35:44;1.60;;;1.20;;
11078;SDS011;5592;49.234;7.268;2023-11-21T10:38:21;2.20;;;1.30;;
11078;SDS011;5592;49.234;7.268;2023-11-21T10:40:49;1.87;;;1.43;;
11078;SDS011;5592;49.234;7.268;2023-11-21T10:43:19;1.23;;;1.13;;
11078;SDS011;5592;49.234;7.268;2023-11-21T10:45:49;2.17;;;1.50;;
11078;SDS011;5592;49.234;7.268;2023-11-21T10:48:15;3.60;;;2.03;;
11078;SDS011;5592;49.234;7.268;2023-11-21T10:50:41;1.97;;;1.20;;
11078;SDS011;5592;49.234;7.268;2023-11-21T10:53:07;2.60;;;1.10;;
11078;SDS011;5592;49.234;7.268;2023-11-21T10:55:36;1.70;;;1.30;;
11078;SDS011;5592;49.234;7.268;2023-11-21T10:58:03;1.70;;;1.47;;
11078;SDS011;5592;49.234;7.268;2023-11-21T11:00:31;1.67;;;1.57;;
11078;SDS011;5592;49.234;7.268;2023-11-21T11:02:59;1.40;;;1.07;;
11078;SDS011;5592;49.234;7.268;2023-11-21T11:05:30;2.90;;;1.10;;
11078;SDS011;5592;49.234;7.268;2023-11-21T11:08:05;1.60;;;1.23;;
11078;SDS011;5592;49.234;7.268;2023-11-21T11:10:35;4.10;;;1.40;;
11078;SDS011;5592;49.234;7.268;2023-11-21T11:13:02;1.30;;;1.20;;
11078;SDS011;5592;49.234;7.268;2023-11-21T11:15:30;4.47;;;1.47;;
11078;SDS011;5592;49.234;7.268;2023-11-21T11:17:56;2.07;;;1.20;;
11078;SDS011;5592;49.234;7.268;2023-11-21T11:20:22;2.57;;;1.27;;
11078;SDS011;5592;49.234;7.268;2023-11-21T11:23:11;1.50;;;1.40;;
11078;SDS011;5592;49.234;7.268;2023-11-21T11:32:16;1.80;;;1.17;;
11078;SDS011;5592;49.234;7.268;2023-11-21T11:35:10;2.60;;;1.37;;
11078;SDS011;5592;49.234;7.268;2023-11-21T11:37:59;1.40;;;1.00;;
11078;SDS011;5592;49.234;7.268;2023-11-21T11:40:47;4.60;;;1.40;;
11078;SDS011;5592;49.234;7.268;2023-11-21T11:43:24;3.73;;;1.20;;
11078;SDS011;5592;49.234;7.268;2023-11-21T11:46:02;3.90;;;1.50;;
11078;SDS011;5592;49.234;7.268;2023-11-21T11:48:39;1.80;;;1.20;;
11078;SDS011;5592;49.234;7.268;2023-11-21T11:53:37;1.70;;;1.20;;
11078;SDS011;5592;49.234;7.268;2023-11-21T11:59:03;2.73;;;1.37;;
11078;SDS011;5592;49.234;7.268;2023-11-21T12:01:32;1.43;;;1.20;;
11078;SDS011;5592;49.234;7.268;2023-11-21T12:06:59;1.20;;;1.10;;
11078;SDS011;5592;49.234;7.268;2023-11-21T12:09:29;3.23;;;1.43;;
11078;SDS011;5592;49.234;7.268;2023-11-21T12:11:57;2.60;;;1.20;;
11078;SDS011;5592;49.234;7.268;2023-11-21T12:14:23;1.73;;;1.43;;
11078;SDS011;5592;49.234;7.268;2023-11-21T12:16:49;1.90;;;1.50;;
11078;SDS011;5592;49.234;7.268;2023-11-21T12:19:16;1.70;;;1.20;;
11078;SDS011;5592;49.234;7.268;2023-11-21T12:21:42;4.50;;;1.47;;
11078;SDS011;5592;49.234;7.268;2023-11-21T12:24:09;1.73;;;1.60;;
11078;SDS011;5592;49.234;7.268;2023-11-21T12:26:35;1.47;;;1.37;;
11078;SDS011;5592;49.234;7.268;2023-11-21T12:29:02;2.60;;;1.60;;
11078;SDS011;5592;49.234;7.268;2023-11-21T12:31:29;1.70;;;1.60;;
11078;SDS011;5592;49.234;7.268;2023-11-21T12:33:57;5.67;;;1.60;;
11078;SDS011;5592;49.234;7.268;2023-11-21T12:36:32;9.23;;;1.77;;
11078;SDS011;5592;49.234;7.268;2023-11-21T12:39:11;5.07;;;1.33;;
11078;SDS011;5592;49.234;7.268;2023-11-21T12:41:39;3.30;;;1.90;;
11078;SDS011;5592;49.234;7.268;2023-11-21T12:44:09;1.97;;;1.60;;
11078;SDS011;5592;49.234;7.268;2023-11-21T12:46:40;10.73;;;1.90;;
11078;SDS011;5592;49.234;7.268;2023-11-21T12:49:07;4.43;;;1.70;;
11078;SDS011;5592;49.234;7.268;2023-11-21T12:51:33;2.07;;;1.90;;
11078;SDS011;5592;49.234;7.268;2023-11-21T12:53:59;3.50;;;1.77;;
11078;SDS011;5592;49.234;7.268;2023-11-21T12:56:24;1.93;;;1.40;;
11078;SDS011;5592;49.234;7.268;2023-11-21T12:58:50;3.03;;;2.03;;
11078;SDS011;5592;49.234;7.268;2023-11-21T13:01:19;2.20;;;1.40;;
11078;SDS011;5592;49.234;7.268;2023-11-21T13:03:49;5.73;;;1.50;;
11078;SDS011;5592;49.234;7.268;2023-11-21T13:06:24;1.57;;;1.30;;
11078;SDS011;5592;49.234;7.268;2023-11-21T13:08:51;1.67;;;1.37;;
11078;SDS011;5592;49.234;7.268;2023-11-21T13:11:17;3.53;;;1.57;;
11078;SDS011;5592;49.234;7.268;2023-11-21T13:13:42;2.47;;;1.87;;
11078;SDS011;5592;49.234;7.268;2023-11-21T13:16:08;2.93;;;1.87;;
11078;SDS011;5592;49.234;7.268;2023-11-21T13:18:34;2.00;;;1.63;;
11078;SDS011;5592;49.234;7.268;2023-11-21T13:21:01;2.50;;;1.60;;
11078;SDS011;5592;49.234;7.268;2023-11-21T13:23:34;4.30;;;1.90;;
11078;SDS011;5592;49.234;7.268;2023-11-21T13:26:01;2.50;;;1.80;;
11078;SDS011;5592;49.234;7.268;2023-11-21T13:28:29;1.90;;;1.80;;
11078;SDS011;5592;49.234;7.268;2023-11-21T13:30:57;2.97;;;1.87;;
11078;SDS011;5592;49.234;7.268;2023-11-21T13:33:29;2.87;;;2.00;;
11078;SDS011;5592;49.234;7.268;2023-11-21T13:35:56;5.03;;;2.20;;
11078;SDS011;5592;49.234;7.268;2023-11-21T13:38:24;2.90;;;2.13;;
11078;SDS011;5592;49.234;7.268;2023-11-21T13:40:57;3.50;;;2.50;;
11078;SDS011;5592;49.234;7.268;2023-11-21T13:43:25;4.23;;;2.20;;
11078;SDS011;5592;49.234;7.268;2023-11-21T13:45:53;4.60;;;2.30;;
11078;SDS011;5592;49.234;7.268;2023-11-21T13:48:29;7.17;;;2.43;;
11078;SDS011;5592;49.234;7.268;2023-11-21T13:51:05;3.50;;;2.40;;
11078;SDS011;5592;49.234;7.268;2023-11-21T13:53:41;2.10;;;1.90;;
11078;SDS011;5592;49.234;7.268;2023-11-21T13:56:15;3.93;;;2.27;;
11078;SDS011;5592;49.234;7.268;2023-11-21T13:58:45;4.80;;;2.20;;
11078;SDS011;5592;49.234;7.268;2023-11-21T14:01:20;5.07;;;2.07;;
11078;SDS011;5592;49.234;7.268;2023-11-21T14:03:57;4.10;;;2.37;;
11078;SDS011;5592;49.234;7.268;2023-11-21T14:06:49;5.00;;;2.47;;
11078;SDS011;5592;49.234;7.268;2023-11-21T14:09:18;7.60;;;3.13;;
11078;SDS011;5592;49.234;7.268;2023-11-21T14:11:53;8.23;;;3.47;;
11078;SDS011;5592;49.234;7.268;2023-11-21T14:14:21;5.20;;;2.90;;
11078;SDS011;5592;49.234;7.268;2023-11-21T14:16:49;4.83;;;3.00;;
11078;SDS011;5592;49.234;7.268;2023-11-21T14:19:16;8.83;;;3.27;;
11078;SDS011;5592;49.234;7.268;2023-11-21T14:21:42;9.03;;;3.47;;
11078;SDS011;5592;49.234;7.268;2023-11-21T14:24:13;4.70;;;3.40;;
11078;SDS011;5592;49.234;7.268;2023-11-21T14:26:42;6.97;;;3.80;;
11078;SDS011;5592;49.234;7.268;2023-11-21T14:29:10;5.53;;;3.30;;
11078;SDS011;5592;49.234;7.268;2023-11-21T14:31:39;5.83;;;3.57;;
11078;SDS011;5592;49.234;7.268;2023-11-21T14:34:09;2.90;;;2.60;;
11078;SDS011;5592;49.234;7.268;2023-11-21T14:36:37;8.50;;;2.80;;
11078;SDS011;5592;49.234;7.268;2023-11-21T14:39:08;3.00;;;2.70;;
11078;SDS011;5592;49.234;7.268;2023-11-21T14:41:41;4.37;;;3.10;;
11078;SDS011;5592;49.234;7.268;2023-11-21T14:44:07;3.17;;;2.83;;
11078;SDS011;5592;49.234;7.268;2023-11-21T14:46:36;3.43;;;3.13;;
11078;SDS011;5592;49.234;7.268;2023-11-21T14:49:04;5.23;;;3.03;;
11078;SDS011;5592;49.234;7.268;2023-11-21T14:51:44;6.60;;;3.00;;
11078;SDS011;5592;49.234;7.268;2023-11-21T14:54:34;4.43;;;2.60;;
11078;SDS011;5592;49.234;7.268;2023-11-21T14:57:09;2.70;;;2.37;;
11078;SDS011;5592;49.234;7.268;2023-11-21T14:59:43;3.43;;;3.10;;
11078;SDS011;5592;49.234;7.268;2023-11-21T15:02:20;3.80;;;3.47;;
11078;SDS011;5592;49.234;7.268;2023-11-21T15:04:47;4.73;;;2.93;;
11078;SDS011;5592;49.234;7.268;2023-11-21T15:07:17;4.10;;;3.33;;
11078;SDS011;5592;49.234;7.268;2023-11-21T15:09:43;7.20;;;3.50;;
11078;SDS011;5592;49.234;7.268;2023-11-21T15:12:10;3.70;;;2.83;;
11078;SDS011;5592;49.234;7.268;2023-11-21T15:14:46;4.27;;;3.63;;
11078;SDS011;5592;49.234;7.268;2023-11-21T15:17:19;4.43;;;2.63;;
11078;SDS011;5592;49.234;7.268;2023-11-21T15:19:49;7.23;;;3.20;;
11078;SDS011;5592;49.234;7.268;2023-11-21T15:22:15;4.60;;;3.27;;
11078;SDS011;5592;49.234;7.268;2023-11-21T15:24:41;5.17;;;3.00;;
11078;SDS011;5592;49.234;7.268;2023-11-21T15:27:12;4.57;;;3.53;;
11078;SDS011;5592;49.234;7.268;2023-11-21T15:29:39;5.77;;;4.10;;